ポドゴリツァ の空港の天気 - METARとTAF

ポドゴリツァ空港 ( LYPG / TGD ) - モンテネグロ ポドゴリツァ
飛行場実況気象(Metar)
観測時間07/18 19:30 CEST (07/18 17:30 UTC)
風向・風速南西 3m/s
視程10km以上
天気現象
少しの雲 雲底高度 1220m
気温29℃
湿度31%
気圧1011hPa
METARLYPG 181730Z 22005KT 9999 FEW040 29/10 Q1011 NOSIG
過去の天気等 Google飛行場航空写真 Wunderground天気予報

過去48時間のMETAR

飛行場予報(TAF)
発表時間: 7/18 19:00 CEST (7/18 17:00 UTC)
予報対象時間: 18日20時 CEST ~ 19日20時 CEST
風向・風速北 3m/s
視程10km以上
なし
TAF LYPG 181700Z 1818/1918 36005KT CAVOK TX33/1913 TN19/1903Z